createdAt,value
2018-06-08T00:01:31.473Z,17.20
2018-06-08T00:06:37.604Z,17.00
2018-06-08T00:11:47.873Z,17.00
2018-06-08T00:16:53.313Z,17.10
2018-06-08T00:21:58.048Z,17.30
2018-06-08T00:27:02.945Z,17.30
2018-06-08T00:32:07.906Z,17.00
2018-06-08T00:37:12.843Z,16.70
2018-06-08T00:42:24.155Z,16.40
2018-06-08T00:47:29.200Z,16.30
2018-06-08T00:52:41.157Z,16.10
2018-06-08T00:57:46.115Z,16.20
2018-06-08T01:02:51.151Z,16.20
2018-06-08T01:08:15.487Z,16.20
2018-06-08T01:13:21.091Z,16.20
2018-06-08T01:18:36.241Z,16.00
2018-06-08T01:29:15.862Z,15.60
2018-06-08T01:34:22.322Z,15.70
2018-06-08T01:39:27.278Z,15.90
2018-06-08T01:44:35.121Z,15.90
2018-06-08T01:49:39.727Z,16.10
2018-06-08T01:54:46.245Z,16.00
2018-06-08T01:59:53.541Z,15.90
2018-06-08T02:04:58.483Z,15.90
2018-06-08T02:10:04.876Z,15.90
2018-06-08T02:15:09.911Z,15.80
2018-06-08T02:20:16.647Z,15.80
2018-06-08T02:30:55.893Z,15.70
2018-06-08T02:36:01.103Z,15.70
2018-06-08T02:41:07.774Z,15.70
2018-06-08T02:46:12.452Z,15.70
2018-06-08T02:51:17.312Z,15.60
2018-06-08T02:56:22.165Z,15.50
2018-06-08T03:01:26.834Z,15.60
2018-06-08T03:06:31.533Z,15.60
2018-06-08T03:11:36.226Z,15.50
2018-06-08T03:16:40.850Z,15.50
2018-06-08T03:21:45.575Z,15.50
2018-06-08T03:31:54.323Z,15.60
2018-06-08T03:36:59.058Z,15.60
2018-06-08T03:42:03.670Z,15.60
2018-06-08T03:47:08.450Z,15.70
2018-06-08T03:52:13.049Z,15.80
2018-06-08T03:57:17.789Z,15.90
2018-06-08T04:02:23.099Z,16.00
2018-06-08T04:07:27.780Z,16.20
2018-06-08T04:12:32.552Z,16.30
2018-06-08T04:17:39.619Z,16.30
2018-06-08T04:22:44.607Z,16.50
2018-06-08T04:27:49.377Z,16.60
2018-06-08T04:32:54.879Z,16.80
2018-06-08T04:37:59.600Z,16.90
2018-06-08T04:43:04.440Z,17.10
2018-06-08T04:48:09.510Z,17.30
2018-06-08T04:53:14.356Z,17.60
2018-06-08T04:58:18.997Z,17.80
2018-06-08T05:03:24.039Z,18.00
2018-06-08T05:08:28.893Z,18.00
2018-06-08T05:13:34.018Z,18.00
2018-06-08T05:18:38.732Z,18.10
2018-06-08T05:23:43.516Z,18.30
2018-06-08T05:28:48.352Z,18.30
2018-06-08T05:33:52.982Z,18.30
2018-06-08T05:38:58.119Z,18.40
2018-06-08T05:44:02.881Z,18.30
2018-06-08T05:49:07.619Z,18.60
2018-06-08T05:54:12.502Z,18.90
2018-06-08T05:59:17.516Z,19.10
2018-06-08T06:04:22.106Z,19.30
2018-06-08T06:09:27.077Z,19.50
2018-06-08T06:14:31.834Z,20.00
2018-06-08T06:19:36.608Z,20.30
2018-06-08T06:24:41.301Z,20.30
2018-06-08T06:29:46.016Z,20.20
2018-06-08T06:34:50.997Z,20.20
2018-06-08T06:39:56.719Z,20.30
2018-06-08T06:45:01.689Z,20.30
2018-06-08T06:50:06.707Z,20.50
2018-06-08T06:55:11.983Z,20.40
2018-06-08T07:00:16.817Z,20.60
2018-06-08T07:05:21.584Z,20.70
2018-06-08T07:10:26.427Z,21.40
2018-06-08T07:15:31.798Z,21.30
2018-06-08T07:20:37.113Z,21.00
2018-06-08T07:25:42.192Z,21.00
2018-06-08T07:35:51.533Z,21.30
2018-06-08T07:40:56.426Z,21.60
2018-06-08T07:46:01.575Z,21.60
2018-06-08T07:51:06.518Z,21.80
2018-06-08T07:56:11.442Z,21.50
2018-06-08T08:01:16.287Z,21.60
2018-06-08T08:06:20.997Z,21.90
2018-06-08T08:11:26.022Z,21.80
2018-06-08T08:16:30.759Z,21.60
2018-06-08T08:21:36.022Z,21.40
2018-06-08T08:26:40.814Z,21.30
2018-06-08T08:31:45.682Z,21.20
2018-06-08T08:36:50.531Z,21.00
2018-06-08T08:41:55.287Z,21.40
2018-06-08T08:47:00.097Z,21.80
2018-06-08T08:52:04.921Z,22.50
2018-06-08T08:57:10.031Z,22.60
2018-06-08T09:02:14.705Z,22.40
2018-06-08T09:07:19.470Z,22.00
2018-06-08T09:12:24.808Z,22.40
2018-06-08T09:17:29.858Z,22.90
2018-06-08T09:22:34.795Z,23.30
2018-06-08T09:32:43.842Z,23.10
2018-06-08T09:37:48.791Z,23.50
2018-06-08T09:42:53.646Z,23.00
2018-06-08T09:47:58.274Z,23.40
2018-06-08T09:53:02.997Z,24.10
2018-06-08T09:58:07.864Z,25.10
2018-06-08T10:03:13.052Z,24.90
2018-06-08T10:08:18.047Z,25.00
2018-06-08T10:13:23.069Z,24.60
2018-06-08T10:18:28.407Z,24.90
2018-06-08T10:23:33.091Z,25.00
2018-06-08T10:28:38.018Z,25.00
2018-06-08T10:33:42.740Z,24.90
2018-06-08T10:38:47.561Z,24.40
2018-06-08T10:43:52.829Z,24.50
2018-06-08T10:54:02.103Z,26.30
2018-06-08T10:59:06.724Z,26.30
2018-06-08T11:09:15.758Z,26.60
2018-06-08T11:14:20.722Z,25.80
2018-06-08T11:19:25.566Z,26.10
2018-06-08T11:24:30.194Z,26.30
2018-06-08T11:29:35.190Z,26.60
2018-06-08T11:34:39.981Z,27.00
2018-06-08T11:44:48.923Z,26.70
2018-06-08T11:49:53.690Z,26.30
2018-06-08T11:54:58.307Z,26.90
2018-06-08T12:05:07.734Z,28.70
2018-06-08T12:10:12.910Z,30.80
2018-06-08T12:15:17.872Z,32.00
2018-06-08T12:20:22.821Z,32.10
2018-06-08T12:30:32.296Z,34.70
2018-06-08T12:35:36.974Z,34.00
2018-06-08T12:40:41.614Z,33.30
2018-06-08T12:45:46.254Z,33.20
2018-06-08T12:50:51.113Z,33.40
2018-06-08T12:55:55.752Z,34.70
2018-06-08T13:01:00.500Z,35.60
2018-06-08T13:06:05.222Z,35.90
2018-06-08T13:11:10.177Z,34.00
2018-06-08T13:16:14.992Z,34.20
2018-06-08T13:21:19.772Z,36.50
2018-06-08T13:26:24.560Z,35.60
2018-06-08T13:31:29.214Z,36.00
2018-06-08T13:36:34.492Z,35.40
2018-06-08T13:41:39.320Z,32.60
2018-06-08T13:47:50.282Z,29.20
2018-06-08T13:52:55.226Z,27.80
2018-06-08T13:58:00.156Z,27.10
2018-06-08T14:03:05.103Z,27.00
2018-06-08T14:08:09.697Z,27.30
2018-06-08T14:13:15.332Z,27.50
2018-06-08T14:18:20.244Z,28.20
2018-06-08T14:23:25.253Z,31.40
2018-06-08T14:28:29.969Z,30.80
2018-06-08T14:33:34.758Z,28.60
2018-06-08T14:38:39.507Z,27.50
2018-06-08T14:43:44.198Z,26.20
2018-06-08T14:48:49.754Z,23.70
2018-06-08T14:53:54.956Z,22.50
2018-06-08T14:58:59.909Z,21.40
2018-06-08T15:04:04.822Z,21.10
2018-06-08T15:09:09.743Z,20.90
2018-06-08T15:14:14.428Z,20.20
2018-06-08T15:19:19.194Z,19.40
2018-06-08T15:24:25.523Z,18.90
2018-06-08T15:29:31.477Z,18.80
2018-06-08T15:34:36.279Z,18.50
2018-06-08T15:39:40.950Z,18.50
2018-06-08T15:44:45.864Z,18.80
2018-06-08T15:49:50.468Z,19.00
2018-06-08T15:54:55.212Z,19.10
2018-06-08T16:00:00.100Z,18.90
2018-06-08T16:05:05.012Z,18.90
2018-06-08T16:10:09.834Z,18.70
2018-06-08T16:15:14.653Z,18.60
2018-06-08T16:20:20.077Z,18.50
2018-06-08T16:25:25.167Z,18.70
2018-06-08T16:30:30.140Z,18.70
2018-06-08T16:35:35.169Z,18.60
2018-06-08T16:40:39.902Z,18.60
2018-06-08T16:45:44.567Z,18.60
2018-06-08T16:50:49.787Z,18.70
2018-06-08T16:55:54.666Z,18.70
2018-06-08T17:00:59.485Z,18.60
2018-06-08T17:06:04.425Z,18.50
2018-06-08T17:11:09.138Z,18.60
2018-06-08T17:16:14.338Z,18.60
2018-06-08T17:21:19.438Z,18.60
2018-06-08T17:26:24.290Z,18.80
2018-06-08T17:31:29.800Z,18.80
2018-06-08T17:36:34.470Z,18.90
2018-06-08T17:41:40.481Z,18.80
2018-06-08T17:46:45.360Z,18.80
2018-06-08T17:51:50.067Z,18.80
2018-06-08T17:56:54.939Z,18.60
2018-06-08T18:01:59.958Z,18.40
2018-06-08T18:07:04.807Z,18.40
2018-06-08T18:12:09.825Z,18.10
2018-06-08T18:17:14.622Z,18.00
2018-06-08T18:22:19.732Z,18.10
2018-06-08T18:27:24.789Z,18.10
2018-06-08T18:37:34.238Z,18.00
2018-06-08T18:42:39.084Z,18.00
2018-06-08T18:47:43.740Z,18.00
2018-06-08T18:52:48.471Z,18.00
2018-06-08T18:57:53.694Z,18.00
2018-06-08T19:02:58.561Z,18.10
2018-06-08T19:08:03.623Z,18.10
2018-06-08T19:13:08.453Z,18.00
2018-06-08T19:18:14.737Z,17.90
2018-06-08T19:23:19.424Z,18.00
2018-06-08T19:28:24.270Z,18.00
2018-06-08T19:38:33.022Z,18.00
2018-06-08T19:43:38.169Z,18.10
2018-06-08T19:48:42.909Z,18.20
2018-06-08T19:53:47.596Z,18.20
2018-06-08T19:58:52.692Z,18.20
2018-06-08T20:03:58.380Z,18.10
2018-06-08T20:09:03.291Z,18.20
2018-06-08T20:14:08.006Z,18.20
2018-06-08T20:19:12.664Z,18.30
2018-06-08T20:24:17.909Z,18.20
2018-06-08T20:29:23.184Z,18.20
2018-06-08T20:34:28.322Z,18.20
2018-06-08T20:39:32.995Z,18.20
2018-06-08T20:44:37.989Z,18.30
2018-06-08T20:49:42.835Z,18.30
2018-06-08T20:54:47.572Z,18.20
2018-06-08T20:59:52.604Z,18.30
2018-06-08T21:04:57.333Z,18.30
2018-06-08T21:10:01.981Z,18.40
2018-06-08T21:15:07.084Z,18.30
2018-06-08T21:20:13.201Z,18.10
2018-06-08T21:25:17.912Z,18.10
2018-06-08T21:30:22.543Z,18.20
2018-06-08T21:35:27.470Z,18.20
2018-06-08T21:40:32.051Z,18.30
2018-06-08T21:45:36.779Z,18.30
2018-06-08T21:50:41.559Z,18.30
2018-06-08T21:55:47.328Z,18.30
2018-06-08T22:00:52.160Z,18.20
2018-06-08T22:05:57.265Z,18.30
2018-06-08T22:11:02.450Z,18.30
2018-06-08T22:16:07.182Z,18.40
2018-06-08T22:21:12.089Z,18.30
2018-06-08T22:26:16.998Z,18.30
2018-06-08T22:31:22.381Z,18.30
2018-06-08T22:36:27.197Z,18.30
2018-06-08T22:46:36.243Z,18.30
2018-06-08T22:51:41.093Z,18.10
2018-06-08T22:56:45.948Z,18.10
2018-06-08T23:01:50.526Z,18.00
2018-06-08T23:06:55.489Z,17.80
2018-06-08T23:12:00.236Z,17.70
2018-06-08T23:17:05.008Z,17.70
2018-06-08T23:22:10.191Z,17.60
2018-06-08T23:27:15.137Z,17.60
2018-06-08T23:32:19.715Z,17.50
2018-06-08T23:37:24.534Z,17.40
2018-06-08T23:42:29.475Z,17.30
2018-06-08T23:47:34.127Z,17.20
2018-06-08T23:52:38.931Z,17.20
2018-06-08T23:57:43.571Z,17.20
